ADDS TAF Board (Experimental) INFO

IDs: Format: Expanded Condensed

Updated at: 2119 UTC 02 Sep 2014

KCVG - Cincinnati Intl, KY, US

Issued at 2105 UTC 02 Sep 2014
Time2052Z02/22Z02/23Z03/00Z03/01Z03/02Z03/03Z03/04Z03/05Z03/06Z03/07Z03/08Z03/09Z03/10Z
TypeOBSPRVLPRVLPRVLPRVLPRVLPRVLPRVLPRVLPRVLPRVLPRVLPRVLPRVL
VIS10>6>6>6>6>6>6>6>644442
CIG305050250250250250250250----------
CoverOVCBKNBKNBKNBKNBKNBKNBKNBKNSKCSKCSKCSKCSKC
FltCatMVFRVFRVFRVFRVFRVFRVFRVFRVFRMVFRMVFRMVFRMVFRIFR
WX------------------BRBRBRBRBR
WDir300290290260260260260260260VRBVRBVRBVRBVRB
WSpd34444444433333
WGst----------------------------
R09/27
XWnd211-1-1-1-1-1-1VRBVRBVRBVRBVRB
HWnd-3-4-4-4-4-4-4-4-4VRBVRBVRBVRBVRB
R18/36
XWnd-3-4-4-4-4-4-4-4-4VRBVRBVRBVRBVRB
HWnd-1-1-1111111VRBVRBVRBVRBVRB
Raw TAF
KCVG 022105Z 0221/0324 29004KT P6SM BKN050
  TEMPO 0221/0222 5SM -SHRA BKN030
  FM030000 26004KT P6SM SCT035 BKN250
  FM030600 VRB03KT 4SM BR SKC
  FM031000 VRB03KT 2SM BR SKC
  FM031400 VRB04KT P6SM SCT025


Raw METAR
KCVG 022052Z 30003KT 10SM FEW010 BKN030 BKN065 OVC200 24/21 A2995 RMK AO2 RAE39 SLP130 P0033 60033 T02390211 58010
KCVG 022036Z 33003KT 4SM -RA BR SCT025 BKN036 OVC065 23/22 A2995 RMK AO2 P0033

TAF Board Legend

Hazard VFR MVFR IFR LIFR
Visibility (sm) >5 3≤X≤5 1≤X<3 <1
Ceiling (100 ft) >30 10≤X≤30 5≤X<10 <5
Wind Speed (kt) <10 10≤X<20 20≤X<30 ≥30
Wind Gust (kt) <15 15≤X<25 25≤X<35 ≥35
Weather No Wx Reported VCTS,-TS,-FZRA TS,FZRA +TS,+FZRA


Page loaded:  21:19 UTC  |   02:19 PM Pacific  |   03:19 PM Mountain  |   04:19 PM Central  |   05:19 PM Eastern

 

ADVISORIES

FORECASTS

FORECASTS

OBSERVATIONS

USER TOOLS

ABOUT US